• Join FlightAware (Why Join?)
  • Login
  • US Flag 
08:40AM EST


 

Airport Tracker/Info


-or-


 

Live Flight TrackerFlight Track Log ✈ N600TR ✈ 12-Aug-2013 ✈ KAGS - KATL

Flight Track Log - Related Links

Times and Time Zones

All times are in EDT time to prevent confusion due to time zone crossing. See the N600TR flight status page for this flight to view local times or setup timezone preferences in your user account.

Time Position Orientation Groundspeed Altitude Reporting Facility
EDT Latitude Longitude Course Direction KTS MPH feet Rate Location/Type
07:37AM 33.4397 -82.0397 244° Southwest 191 220 3,200  Level Atlanta Center
07:38AM 33.4267 -82.1222 259° West 201 231 5,300 2,220 Climbing Atlanta Center
07:39AM 33.4111 -82.2097 258° West 241 277 7,700 2,100 Climbing Atlanta Center
07:40AM 33.3958 -82.3069 259° West 277 319 9,600 1,860 Climbing Atlanta Center
07:41AM 33.3828 -82.4144 262° West 323 372 11,500 1,620 Climbing Atlanta Center
07:42AM 33.6170 -82.3327 239° Southwest  Level FlightAware Approximate
07:42AM 33.3697 -82.5289 262° West 354 407 12,900  Level Atlanta Center
07:43AM 33.5896 -82.3926 244° Southwest  Level FlightAware Approximate
07:43AM 33.3711 -82.6508 271° West 362 417 15,300  Level Atlanta Center
07:44AM 33.3744 -82.7678 272° West 379 436 16,900 1,680 Climbing Atlanta Center
07:45AM 33.3819 -82.8944 274° West 386 444 18,700 1,440 Climbing Atlanta Center
07:46AM 33.3914 -83.0261 275° West 400 460 19,800 600 Climbing Atlanta Center
07:47AM 33.3694 -83.1708 260° West 422 486 20,000 60 Climbing Atlanta Center
07:48AM 33.3328 -83.3103 253° West 434 499 20,000 -480 Level Atlanta Center
07:49AM 33.3003 -83.4497 254° West 439 505 19,100 -2,040 Descending Atlanta Center
07:50AM 33.2694 -83.5967 256° West 432 497 16,000 -3,420 Descending Atlanta Center
07:51AM 33.2500 -83.7000 257° West 403 464 12,900 -2,220 Descending Atlanta TRACON
07:52AM 33.2333 -83.8167 260° West 355 409 12,000 -720 Descending Atlanta TRACON
07:53AM 33.2833 -83.9000 306° West 292 336 11,400 -1,200 Descending Atlanta TRACON
07:54AM 33.3667 -83.9333 342° North 289 333 9,600 -1,620 Descending Atlanta TRACON
07:55AM 33.4333 -83.9667 337° Northwest 274 315 8,200 -900 Descending Atlanta TRACON
07:56AM 33.5000 -83.9667 360° North 272 313 8,000 -840 Descending Atlanta TRACON
07:57AM 33.5667 -84.0000 337° Northwest 261 300 6,700 -1,020 Descending Atlanta TRACON
07:58AM 33.6167 -84.0667 312° West 261 300 6,000 -720 Descending Atlanta TRACON
07:59AM 33.6333 -84.1333 287° West 215 247 5,300 -840 Descending Atlanta TRACON
08:00AM 33.6333 -84.2000 270° West 207 238 4,400 -900 Descending Atlanta TRACON
08:01AM 33.6333 -84.2667 270° West 188 216 3,500 -900 Descending Atlanta TRACON
08:02AM 33.6333 -84.3167 270° West 179 206 2,600 -900 Descending Atlanta TRACON
08:03AM 33.6333 -84.3667 270° West 142 163 1,700 -900 Descending Atlanta TRACON